createdAt,value
2023-09-26T00:01:00.914Z,13.40
2023-09-26T00:03:28.355Z,14.10
2023-09-26T00:05:58.216Z,17.70
2023-09-26T00:08:25.892Z,10.90
2023-09-26T00:10:54.547Z,15.10
2023-09-26T00:13:21.967Z,16.70
2023-09-26T00:15:49.465Z,13.00
2023-09-26T00:18:17.058Z,15.80
2023-09-26T00:20:45.696Z,17.50
2023-09-26T00:23:13.447Z,13.50
2023-09-26T00:25:40.858Z,12.70
2023-09-26T00:28:08.552Z,16.20
2023-09-26T00:30:36.097Z,15.40
2023-09-26T00:33:03.768Z,10.50
2023-09-26T00:35:31.187Z,11.40
2023-09-26T00:37:59.546Z,15.50
2023-09-26T00:40:27.095Z,11.10
2023-09-26T00:42:54.481Z,10.60
2023-09-26T00:45:21.986Z,9.90
2023-09-26T00:47:49.757Z,16.20
2023-09-26T00:50:17.870Z,9.10
2023-09-26T00:52:47.929Z,9.00
2023-09-26T00:55:18.008Z,17.00
2023-09-26T00:57:45.777Z,11.80
2023-09-26T01:00:15.838Z,13.40
2023-09-26T01:02:44.040Z,15.00
2023-09-26T01:05:13.821Z,14.90
2023-09-26T01:07:41.251Z,16.40
2023-09-26T01:10:08.973Z,19.80
2023-09-26T01:12:37.127Z,21.90
2023-09-26T01:15:05.156Z,26.40
2023-09-26T01:17:33.595Z,22.60
2023-09-26T01:20:01.303Z,28.70
2023-09-26T01:22:28.934Z,22.20
2023-09-26T01:24:56.315Z,24.50
2023-09-26T01:27:23.818Z,25.90
2023-09-26T01:29:52.637Z,32.80
2023-09-26T01:32:20.061Z,35.90
2023-09-26T01:34:47.451Z,30.10
2023-09-26T01:37:15.020Z,30.50
2023-09-26T01:39:42.454Z,30.00
2023-09-26T01:42:09.804Z,26.30
2023-09-26T01:44:37.184Z,22.40
2023-09-26T01:47:04.734Z,21.80
2023-09-26T01:49:32.317Z,25.50
2023-09-26T01:51:59.805Z,28.30
2023-09-26T01:54:27.469Z,21.70
2023-09-26T01:56:55.118Z,23.90
2023-09-26T01:59:23.125Z,22.30
2023-09-26T02:01:50.846Z,22.50
2023-09-26T02:04:18.288Z,26.60
2023-09-26T02:06:45.749Z,28.30
2023-09-26T02:09:13.252Z,25.70
2023-09-26T02:11:40.588Z,24.30
2023-09-26T02:14:09.147Z,24.40
2023-09-26T02:16:36.822Z,22.70
2023-09-26T02:19:06.513Z,22.50
2023-09-26T02:21:34.201Z,25.00
2023-09-26T02:24:01.605Z,25.40
2023-09-26T02:26:29.009Z,22.10
2023-09-26T02:28:56.334Z,23.60
2023-09-26T02:31:23.792Z,22.10
2023-09-26T02:33:51.626Z,23.90
2023-09-26T02:36:19.104Z,24.30
2023-09-26T02:38:46.540Z,25.10
2023-09-26T02:41:14.380Z,22.90
2023-09-26T02:43:41.804Z,28.50
2023-09-26T02:46:09.875Z,20.80
2023-09-26T02:48:39.017Z,24.40
2023-09-26T02:51:06.526Z,19.50
2023-09-26T02:53:33.922Z,17.90
2023-09-26T02:56:01.444Z,19.90
2023-09-26T02:58:28.890Z,18.70
2023-09-26T03:00:56.598Z,21.90
2023-09-26T03:03:24.185Z,23.40
2023-09-26T03:05:53.555Z,21.50
2023-09-26T03:08:21.008Z,21.70
2023-09-26T03:10:49.193Z,19.60
2023-09-26T03:13:16.711Z,21.20
2023-09-26T03:15:44.135Z,21.80
2023-09-26T03:18:11.586Z,19.20
2023-09-26T03:20:40.419Z,21.90
2023-09-26T03:23:07.858Z,20.80
2023-09-26T03:25:35.342Z,18.10
2023-09-26T03:28:05.001Z,19.30
2023-09-26T03:30:32.483Z,19.90
2023-09-26T03:32:59.940Z,19.10
2023-09-26T03:35:27.401Z,17.20
2023-09-26T03:37:54.756Z,20.90
2023-09-26T03:40:22.215Z,17.80
2023-09-26T03:42:49.718Z,14.70
2023-09-26T03:45:17.254Z,21.20
2023-09-26T03:47:44.674Z,19.20
2023-09-26T03:50:12.158Z,16.70
2023-09-26T03:52:39.490Z,34.30
2023-09-26T03:55:08.107Z,17.30
2023-09-26T03:57:35.989Z,19.40
2023-09-26T04:00:14.020Z,16.40
2023-09-26T04:02:41.671Z,17.80
2023-09-26T04:05:09.193Z,17.60
2023-09-26T04:07:37.778Z,17.10
2023-09-26T04:10:07.114Z,23.80
2023-09-26T04:12:35.229Z,16.70
2023-09-26T04:15:02.698Z,14.30
2023-09-26T04:17:30.887Z,17.50
2023-09-26T04:19:58.917Z,18.20
2023-09-26T04:22:26.589Z,22.30
2023-09-26T04:24:54.586Z,16.30
2023-09-26T04:27:27.547Z,17.50
2023-09-26T04:32:28.049Z,17.80
2023-09-26T04:34:55.565Z,21.50
2023-09-26T04:37:23.015Z,16.40
2023-09-26T04:39:50.602Z,21.40
2023-09-26T04:42:18.059Z,15.40
2023-09-26T04:44:45.453Z,17.00
2023-09-26T04:47:12.894Z,19.90
2023-09-26T04:49:40.923Z,21.80
2023-09-26T04:52:08.477Z,19.00
2023-09-26T04:54:36.282Z,20.60
2023-09-26T04:57:03.726Z,18.60
2023-09-26T04:59:31.217Z,24.20
2023-09-26T05:01:58.663Z,28.10
2023-09-26T05:04:26.969Z,27.50
2023-09-26T05:06:55.044Z,28.20
2023-09-26T05:09:23.406Z,24.80
2023-09-26T05:11:50.786Z,23.30
2023-09-26T05:14:18.240Z,27.40
2023-09-26T05:16:45.841Z,24.50
2023-09-26T05:19:13.354Z,24.90
2023-09-26T05:21:40.780Z,29.20
2023-09-26T05:24:11.720Z,31.90
2023-09-26T05:26:39.170Z,33.10
2023-09-26T05:29:06.977Z,24.80
2023-09-26T05:31:34.490Z,27.70
2023-09-26T05:34:02.175Z,26.70
2023-09-26T05:36:29.721Z,25.60
2023-09-26T05:38:57.114Z,23.60
2023-09-26T05:41:24.466Z,21.70
2023-09-26T05:43:52.057Z,23.10
2023-09-26T05:46:19.798Z,24.40
2023-09-26T05:48:52.340Z,23.00
2023-09-26T05:51:20.242Z,21.90
2023-09-26T05:53:47.974Z,18.90
2023-09-26T05:56:15.428Z,20.10
2023-09-26T05:58:42.911Z,22.60
2023-09-26T06:01:10.695Z,22.20
2023-09-26T06:03:38.347Z,20.40
2023-09-26T06:06:05.993Z,19.00
2023-09-26T06:08:35.036Z,22.00
2023-09-26T06:11:03.808Z,19.60
2023-09-26T06:13:32.622Z,19.60
2023-09-26T06:16:00.089Z,17.00
2023-09-26T06:18:28.539Z,20.80
2023-09-26T06:20:56.024Z,19.50
2023-09-26T06:23:23.439Z,18.60
2023-09-26T06:26:00.733Z,21.80
2023-09-26T06:28:28.846Z,19.90
2023-09-26T06:30:57.454Z,18.90
2023-09-26T06:33:25.170Z,16.50
2023-09-26T06:35:52.891Z,17.70
2023-09-26T06:38:20.985Z,20.20
2023-09-26T06:40:48.578Z,18.00
2023-09-26T06:43:16.110Z,17.70
2023-09-26T06:45:43.551Z,20.40
2023-09-26T06:48:11.165Z,20.00
2023-09-26T06:50:43.380Z,16.90
2023-09-26T06:53:10.934Z,19.20
2023-09-26T06:55:40.757Z,22.00
2023-09-26T06:58:08.603Z,23.00
2023-09-26T07:00:37.135Z,23.70
2023-09-26T07:03:05.492Z,24.20
2023-09-26T07:05:33.330Z,29.60
2023-09-26T07:08:00.793Z,26.50
2023-09-26T07:10:28.470Z,25.90
2023-09-26T07:12:55.909Z,20.50
2023-09-26T07:15:26.702Z,20.10
2023-09-26T07:17:54.111Z,21.50
2023-09-26T07:20:22.922Z,22.80
2023-09-26T07:22:51.276Z,19.70
2023-09-26T07:25:18.785Z,20.10
2023-09-26T07:27:47.764Z,19.10
2023-09-26T07:30:16.192Z,20.60
2023-09-26T07:32:43.615Z,16.10
2023-09-26T07:35:11.034Z,18.70
2023-09-26T07:37:38.491Z,18.80
2023-09-26T07:40:10.493Z,19.10
2023-09-26T07:42:38.257Z,21.30
2023-09-26T07:45:06.292Z,19.00
2023-09-26T07:47:33.757Z,18.10
2023-09-26T07:50:02.626Z,17.50
2023-09-26T07:52:33.409Z,18.90
2023-09-26T07:55:00.831Z,19.10
2023-09-26T07:57:28.328Z,16.80
2023-09-26T07:59:55.732Z,19.80
2023-09-26T08:02:23.180Z,20.90
2023-09-26T08:04:53.236Z,19.70
2023-09-26T08:07:20.730Z,20.70
2023-09-26T08:09:48.233Z,24.00
2023-09-26T08:12:15.798Z,20.50
2023-09-26T08:14:43.273Z,18.40
2023-09-26T08:17:10.691Z,22.10
2023-09-26T08:19:38.176Z,21.70
2023-09-26T08:22:05.664Z,24.80
2023-09-26T08:24:33.129Z,23.10
2023-09-26T08:27:00.588Z,23.40
2023-09-26T08:29:28.733Z,25.40
2023-09-26T08:31:56.171Z,20.80
2023-09-26T08:34:24.345Z,22.60
2023-09-26T08:36:53.746Z,21.20
2023-09-26T08:39:21.433Z,22.30
2023-09-26T08:41:51.245Z,22.10
2023-09-26T08:44:19.247Z,22.50
2023-09-26T08:46:46.744Z,23.60
2023-09-26T08:49:14.480Z,20.20
2023-09-26T08:51:42.172Z,22.90
2023-09-26T08:54:11.475Z,24.00
2023-09-26T08:56:41.104Z,22.10
2023-09-26T08:59:10.211Z,25.10
2023-09-26T09:01:37.946Z,22.20
2023-09-26T09:04:05.731Z,22.10
2023-09-26T09:06:33.264Z,17.50
2023-09-26T09:09:10.734Z,22.80
2023-09-26T09:11:38.348Z,21.80
2023-09-26T09:14:07.402Z,25.90
2023-09-26T09:16:35.063Z,25.30
2023-09-26T09:19:02.666Z,21.90
2023-09-26T09:21:31.926Z,24.90
2023-09-26T09:24:05.877Z,25.50
2023-09-26T09:26:35.983Z,20.60
2023-09-26T09:29:18.006Z,19.90
2023-09-26T09:31:45.714Z,19.90
2023-09-26T09:34:13.563Z,21.30
2023-09-26T09:36:41.143Z,21.50
2023-09-26T09:39:11.657Z,26.00
2023-09-26T09:41:39.777Z,24.00
2023-09-26T09:44:07.333Z,26.00
2023-09-26T09:48:04.519Z,28.00
2023-09-26T09:50:33.111Z,26.40
2023-09-26T09:53:02.782Z,21.60
2023-09-26T09:55:34.662Z,24.30
2023-09-26T09:58:03.934Z,20.30
2023-09-26T10:00:33.213Z,24.40
2023-09-26T10:03:07.166Z,20.10
2023-09-26T10:05:37.932Z,23.00
2023-09-26T10:08:06.506Z,20.80
2023-09-26T10:10:33.920Z,20.20
2023-09-26T10:13:32.371Z,22.10
2023-09-26T10:16:07.275Z,18.60
2023-09-26T10:18:38.512Z,17.60
2023-09-26T10:21:29.534Z,18.70
2023-09-26T10:24:06.174Z,22.10
2023-09-26T10:26:34.537Z,23.60
2023-09-26T10:29:05.816Z,18.30
2023-09-26T10:31:38.296Z,20.70
2023-09-26T10:34:07.026Z,20.70
2023-09-26T10:36:38.739Z,21.40
2023-09-26T10:39:07.160Z,22.50
2023-09-26T10:41:46.327Z,22.00
2023-09-26T10:44:22.134Z,18.60
2023-09-26T10:46:49.664Z,25.00
2023-09-26T10:49:17.244Z,19.30
2023-09-26T10:51:44.927Z,19.40
2023-09-26T10:54:12.357Z,20.80
2023-09-26T10:56:47.449Z,20.50
2023-09-26T10:59:18.764Z,21.60
2023-09-26T11:01:49.239Z,18.30
2023-09-26T11:04:17.195Z,15.50
2023-09-26T11:06:45.478Z,21.30
2023-09-26T11:09:13.607Z,19.60
2023-09-26T11:11:41.988Z,18.60
2023-09-26T11:14:09.435Z,18.50
2023-09-26T11:16:36.886Z,17.00
2023-09-26T11:19:04.669Z,17.10
2023-09-26T11:21:32.455Z,15.80
2023-09-26T11:24:00.709Z,18.50
2023-09-26T11:26:28.100Z,18.60
2023-09-26T11:28:56.165Z,15.50
2023-09-26T11:31:25.020Z,14.50
2023-09-26T11:33:52.876Z,13.80
2023-09-26T11:36:20.469Z,17.20
2023-09-26T11:38:49.381Z,16.90
2023-09-26T11:41:17.230Z,13.20
2023-09-26T11:43:48.880Z,17.90
2023-09-26T11:46:16.701Z,13.40
2023-09-26T11:48:44.528Z,21.70
2023-09-26T11:51:12.041Z,16.70
2023-09-26T11:53:39.626Z,15.90
2023-09-26T11:56:08.718Z,17.50
2023-09-26T11:58:38.108Z,14.00
2023-09-26T12:01:06.243Z,19.10
2023-09-26T12:03:33.901Z,17.00
2023-09-26T12:06:02.716Z,17.00
2023-09-26T12:08:30.548Z,12.80
2023-09-26T12:10:59.380Z,19.60
2023-09-26T12:13:27.095Z,15.40
2023-09-26T12:15:54.763Z,15.90
2023-09-26T12:18:22.370Z,17.10
2023-09-26T12:20:56.993Z,20.80
2023-09-26T12:23:25.754Z,16.20
2023-09-26T12:25:53.430Z,18.00
2023-09-26T12:28:23.317Z,14.90
2023-09-26T12:30:51.653Z,19.20
2023-09-26T12:33:19.260Z,20.60
2023-09-26T12:35:46.834Z,12.80
2023-09-26T12:38:14.354Z,16.10
2023-09-26T12:40:42.131Z,13.20
2023-09-26T12:43:09.686Z,17.00
2023-09-26T12:45:37.247Z,15.60
2023-09-26T12:48:05.348Z,15.70
2023-09-26T12:50:41.967Z,20.80
2023-09-26T12:53:09.554Z,17.20
2023-09-26T12:55:37.206Z,11.10
2023-09-26T12:58:05.021Z,16.40
2023-09-26T13:00:34.955Z,16.20
2023-09-26T13:03:02.612Z,17.50
2023-09-26T13:05:30.316Z,18.70
2023-09-26T13:07:57.932Z,21.60
2023-09-26T13:16:57.302Z,15.30
2023-09-26T13:19:26.367Z,17.40
2023-09-26T13:21:55.782Z,14.80
2023-09-26T13:24:27.850Z,14.10
2023-09-26T13:26:56.588Z,15.70
2023-09-26T13:29:25.986Z,17.20
2023-09-26T13:31:53.846Z,16.40
2023-09-26T13:34:21.692Z,13.40
2023-09-26T13:36:49.201Z,20.30
2023-09-26T13:39:17.298Z,19.30
2023-09-26T13:41:44.901Z,14.10
2023-09-26T13:44:13.017Z,12.70
2023-09-26T13:46:41.036Z,12.10
2023-09-26T13:49:09.917Z,14.20
2023-09-26T13:51:37.706Z,15.00
2023-09-26T13:54:07.740Z,12.40
2023-09-26T13:56:35.371Z,15.50
2023-09-26T13:59:02.950Z,14.50
2023-09-26T14:01:30.462Z,13.80
2023-09-26T14:03:58.703Z,13.50
2023-09-26T14:06:26.790Z,14.20
2023-09-26T14:08:54.369Z,18.60
2023-09-26T14:11:22.273Z,17.90
2023-09-26T14:13:49.796Z,12.50
2023-09-26T14:16:17.557Z,15.80
2023-09-26T14:18:45.222Z,20.90
2023-09-26T14:21:15.763Z,19.70
2023-09-26T14:23:43.558Z,16.10
2023-09-26T14:26:11.552Z,19.10
2023-09-26T14:28:42.772Z,16.80
2023-09-26T14:31:10.853Z,16.60
2023-09-26T14:33:38.759Z,13.40
2023-09-26T14:36:09.061Z,14.90
2023-09-26T14:38:36.637Z,15.20
2023-09-26T14:41:04.167Z,15.50
2023-09-26T14:43:31.802Z,17.10
2023-09-26T14:45:59.360Z,17.50
2023-09-26T14:48:26.935Z,20.70
2023-09-26T14:50:56.558Z,17.90
2023-09-26T14:53:24.101Z,20.10
2023-09-26T14:55:51.870Z,16.20
2023-09-26T14:58:20.559Z,15.80
2023-09-26T15:00:48.424Z,16.70
2023-09-26T15:03:17.252Z,14.90
2023-09-26T15:05:46.194Z,17.30
2023-09-26T15:08:17.427Z,17.80
2023-09-26T15:10:45.002Z,19.90
2023-09-26T15:13:13.640Z,17.50
2023-09-26T15:15:43.565Z,17.20
2023-09-26T15:18:12.181Z,15.40
2023-09-26T15:20:42.243Z,19.30
2023-09-26T15:23:10.951Z,19.10
2023-09-26T15:25:38.548Z,19.70
2023-09-26T15:28:06.297Z,19.60
2023-09-26T15:30:33.750Z,27.20
2023-09-26T15:33:01.500Z,23.10
2023-09-26T15:35:29.473Z,29.90
2023-09-26T15:37:56.924Z,23.70
2023-09-26T15:40:29.405Z,32.90
2023-09-26T15:42:56.883Z,26.40
2023-09-26T15:45:24.294Z,25.30
2023-09-26T15:47:54.313Z,28.60
2023-09-26T15:50:21.986Z,22.10
2023-09-26T15:52:54.390Z,32.50
2023-09-26T15:55:21.854Z,26.40
2023-09-26T15:57:49.259Z,25.50
2023-09-26T16:00:17.701Z,28.30
2023-09-26T16:02:45.221Z,34.20
2023-09-26T16:05:12.789Z,33.50
2023-09-26T16:07:40.834Z,41.10
2023-09-26T16:10:10.340Z,31.80
2023-09-26T16:12:43.287Z,35.90
2023-09-26T16:15:18.815Z,30.10
2023-09-26T16:17:46.343Z,28.40
2023-09-26T16:20:14.034Z,44.40
2023-09-26T16:22:42.205Z,38.30
2023-09-26T16:25:10.165Z,38.70
2023-09-26T16:27:37.549Z,32.60
2023-09-26T16:30:05.617Z,32.00
2023-09-26T16:32:33.393Z,52.80
2023-09-26T16:35:00.973Z,57.40
2023-09-26T16:37:28.743Z,64.60
2023-09-26T16:39:56.336Z,79.30
2023-09-26T16:42:24.028Z,68.60
2023-09-26T16:44:51.575Z,65.20
2023-09-26T16:47:19.168Z,65.50
2023-09-26T16:49:46.924Z,59.50
2023-09-26T16:52:14.401Z,75.40
2023-09-26T16:54:41.870Z,64.60
2023-09-26T16:57:09.770Z,63.70
2023-09-26T16:59:37.265Z,54.70
2023-09-26T17:02:04.800Z,51.20
2023-09-26T17:04:32.933Z,53.80
2023-09-26T17:07:00.709Z,47.90
2023-09-26T17:09:28.320Z,45.60
2023-09-26T17:11:55.992Z,41.00
2023-09-26T17:14:24.903Z,41.70
2023-09-26T17:16:52.455Z,45.90
2023-09-26T17:19:19.982Z,46.40
2023-09-26T17:21:47.867Z,38.70
2023-09-26T17:24:15.412Z,44.90
2023-09-26T17:26:44.058Z,47.60
2023-09-26T17:29:12.303Z,48.50
2023-09-26T17:31:40.404Z,52.10
2023-09-26T17:34:07.979Z,53.90
2023-09-26T17:36:35.545Z,61.80
2023-09-26T17:39:03.505Z,66.60
2023-09-26T17:41:31.844Z,69.60
2023-09-26T17:44:00.009Z,63.60
2023-09-26T17:46:28.798Z,65.30
2023-09-26T17:48:56.277Z,73.10
2023-09-26T17:51:23.897Z,86.00
2023-09-26T17:53:51.395Z,77.50
2023-09-26T17:56:18.958Z,80.20
2023-09-26T17:58:46.665Z,109.50
2023-09-26T18:01:14.667Z,113.20
2023-09-26T18:03:42.321Z,108.20
2023-09-26T18:06:09.884Z,104.70
2023-09-26T18:08:37.550Z,87.50
2023-09-26T18:11:05.504Z,80.50
2023-09-26T18:13:33.080Z,75.30
2023-09-26T18:16:00.739Z,71.90
2023-09-26T18:18:28.437Z,61.20
2023-09-26T18:20:56.057Z,65.90
2023-09-26T18:23:23.684Z,66.80
2023-09-26T18:25:51.485Z,60.20
2023-09-26T18:28:19.552Z,58.30
2023-09-26T18:30:47.039Z,60.50
2023-09-26T18:33:14.561Z,62.70
2023-09-26T18:35:42.139Z,57.70
2023-09-26T18:38:10.706Z,53.10
2023-09-26T18:40:38.255Z,59.30
2023-09-26T18:43:05.846Z,55.40
2023-09-26T18:45:33.332Z,54.00
2023-09-26T18:48:00.878Z,54.50
2023-09-26T18:50:28.419Z,55.90
2023-09-26T18:52:55.967Z,50.00
2023-09-26T18:55:23.483Z,48.50
2023-09-26T18:57:50.919Z,47.00
2023-09-26T19:00:18.532Z,47.30
2023-09-26T19:02:46.398Z,42.50
2023-09-26T19:05:14.719Z,43.30
2023-09-26T19:07:42.397Z,40.70
2023-09-26T19:10:10.238Z,42.00
2023-09-26T19:12:37.907Z,46.40
2023-09-26T19:15:05.836Z,44.30
2023-09-26T19:17:33.330Z,41.10
2023-09-26T19:20:00.835Z,42.70
2023-09-26T19:22:28.452Z,44.70
2023-09-26T19:24:55.896Z,43.50
2023-09-26T19:27:23.356Z,43.60
2023-09-26T19:29:50.727Z,42.70
2023-09-26T19:32:18.239Z,43.30
2023-09-26T19:34:45.744Z,41.20
2023-09-26T19:37:13.394Z,39.80
2023-09-26T19:39:40.751Z,40.30
2023-09-26T19:42:08.491Z,41.40
2023-09-26T19:44:36.233Z,36.30
2023-09-26T19:47:03.794Z,41.60
2023-09-26T19:49:32.076Z,40.50
2023-09-26T19:51:59.536Z,38.50
2023-09-26T19:54:26.927Z,46.00
2023-09-26T19:56:54.676Z,38.70
2023-09-26T19:59:22.259Z,40.30
2023-09-26T20:01:49.893Z,33.50
2023-09-26T20:04:17.558Z,40.90
2023-09-26T20:06:44.933Z,33.80
2023-09-26T20:09:13.002Z,34.50
2023-09-26T20:11:40.473Z,35.20
2023-09-26T20:14:07.906Z,35.50
2023-09-26T20:16:35.398Z,33.80
2023-09-26T20:19:03.117Z,40.40
2023-09-26T20:21:30.514Z,33.60
2023-09-26T20:23:58.185Z,35.00
2023-09-26T20:26:25.642Z,33.60
2023-09-26T20:28:53.839Z,30.90
2023-09-26T20:31:21.437Z,36.40
2023-09-26T20:33:48.822Z,27.90
2023-09-26T20:36:16.351Z,33.60
2023-09-26T20:38:44.022Z,31.50
2023-09-26T20:41:11.439Z,31.50
2023-09-26T20:43:41.850Z,33.60
2023-09-26T20:46:10.456Z,33.80
2023-09-26T20:48:37.964Z,37.90
2023-09-26T20:51:06.680Z,31.70
2023-09-26T20:53:34.154Z,35.00
2023-09-26T20:56:05.563Z,31.60
2023-09-26T20:58:34.111Z,32.20
2023-09-26T21:01:09.097Z,28.30
2023-09-26T21:03:37.101Z,33.80
2023-09-26T21:06:04.830Z,27.00
2023-09-26T21:08:35.006Z,29.90
2023-09-26T21:11:03.142Z,39.50
2023-09-26T21:13:31.523Z,44.10
2023-09-26T21:16:16.230Z,31.70
2023-09-26T21:18:45.933Z,27.10
2023-09-26T21:21:21.711Z,25.60
2023-09-26T21:23:50.005Z,33.40
2023-09-26T21:26:17.934Z,25.10
2023-09-26T21:28:45.748Z,29.60
2023-09-26T21:31:13.132Z,26.90
2023-09-26T21:33:40.483Z,27.40
2023-09-26T21:36:08.130Z,24.10
2023-09-26T21:38:35.735Z,27.50
2023-09-26T21:41:03.833Z,27.70
2023-09-26T21:43:31.498Z,31.60
2023-09-26T21:45:58.998Z,34.00
2023-09-26T21:48:26.462Z,27.20
2023-09-26T21:50:53.879Z,27.90
2023-09-26T21:53:21.263Z,39.90
2023-09-26T21:55:48.864Z,31.40
2023-09-26T21:58:16.570Z,28.00
2023-09-26T22:00:43.921Z,29.80
2023-09-26T22:05:39.310Z,28.00
2023-09-26T22:08:06.990Z,28.10
2023-09-26T22:10:35.004Z,26.60
2023-09-26T22:13:03.168Z,26.70
2023-09-26T22:15:30.617Z,28.30
2023-09-26T22:17:58.621Z,23.00
2023-09-26T22:20:34.021Z,24.40
2023-09-26T22:23:02.019Z,21.30
2023-09-26T22:25:29.556Z,26.60
2023-09-26T22:27:57.134Z,24.60
2023-09-26T22:30:24.894Z,27.60
2023-09-26T22:32:52.409Z,31.10
2023-09-26T22:35:20.201Z,23.10
2023-09-26T22:37:47.814Z,26.10
2023-09-26T22:40:15.200Z,24.10
2023-09-26T22:42:42.876Z,22.60
2023-09-26T22:45:11.485Z,23.30
2023-09-26T22:47:39.029Z,23.40
2023-09-26T22:50:06.745Z,20.60
2023-09-26T22:52:35.027Z,26.30
2023-09-26T22:55:03.857Z,22.40
2023-09-26T22:57:31.249Z,21.90
2023-09-26T22:59:58.636Z,18.30
2023-09-26T23:02:26.221Z,20.50
2023-09-26T23:04:53.632Z,22.20
2023-09-26T23:07:20.984Z,21.50
2023-09-26T23:09:48.501Z,22.20
2023-09-26T23:12:15.954Z,21.00
2023-09-26T23:14:43.371Z,20.10
2023-09-26T23:17:12.180Z,21.10
2023-09-26T23:19:39.887Z,21.70
2023-09-26T23:22:07.314Z,21.70
2023-09-26T23:24:34.789Z,24.50
2023-09-26T23:27:02.258Z,21.00
2023-09-26T23:29:29.694Z,20.20
2023-09-26T23:31:57.185Z,20.50
2023-09-26T23:34:25.615Z,17.80
2023-09-26T23:36:54.276Z,22.10
2023-09-26T23:39:23.191Z,21.10
2023-09-26T23:41:50.524Z,20.00
2023-09-26T23:44:18.103Z,19.20
2023-09-26T23:46:45.607Z,20.90
2023-09-26T23:49:12.929Z,17.60
2023-09-26T23:51:40.674Z,22.10
2023-09-26T23:54:08.652Z,19.00
2023-09-26T23:56:36.025Z,19.80
2023-09-26T23:59:03.557Z,17.20
